createdAt,value
2022-11-15T00:00:52.534Z,8.95
2022-11-15T00:03:20.926Z,9.02
2022-11-15T00:05:47.692Z,9.01
2022-11-15T00:08:14.281Z,9.03
2022-11-15T00:10:40.828Z,9.06
2022-11-15T00:13:11.882Z,9.10
2022-11-15T00:15:41.984Z,8.99
2022-11-15T00:18:13.777Z,9.14
2022-11-15T00:20:40.452Z,9.14
2022-11-15T00:23:07.947Z,9.01
2022-11-15T00:25:34.343Z,8.98
2022-11-15T00:28:01.167Z,8.87
2022-11-15T00:30:28.046Z,8.84
2022-11-15T00:32:54.845Z,8.82
2022-11-15T00:35:21.508Z,8.85
2022-11-15T00:37:48.557Z,8.93
2022-11-15T00:40:15.653Z,8.89
2022-11-15T00:42:42.717Z,8.88
2022-11-15T00:45:09.920Z,8.91
2022-11-15T00:47:36.321Z,9.02
2022-11-15T00:50:02.849Z,8.95
2022-11-15T00:52:29.232Z,8.93
2022-11-15T00:54:55.597Z,8.87
2022-11-15T00:57:21.962Z,8.92
2022-11-15T00:59:48.325Z,9.06
2022-11-15T01:02:14.705Z,9.20
2022-11-15T01:04:41.054Z,9.14
2022-11-15T01:07:07.495Z,9.33
2022-11-15T01:09:33.911Z,9.47
2022-11-15T01:12:00.388Z,9.68
2022-11-15T01:14:26.906Z,9.88
2022-11-15T01:16:53.302Z,9.91
2022-11-15T01:19:19.672Z,9.88
2022-11-15T01:21:46.062Z,9.96
2022-11-15T01:24:14.994Z,10.10
2022-11-15T01:26:41.401Z,10.22
2022-11-15T01:29:07.830Z,10.23
2022-11-15T01:31:34.216Z,10.41
2022-11-15T01:34:00.604Z,10.46
2022-11-15T01:36:27.016Z,10.50
2022-11-15T01:38:55.561Z,10.60
2022-11-15T01:41:24.436Z,10.61
2022-11-15T01:43:54.327Z,10.75
2022-11-15T01:46:31.021Z,10.76
2022-11-15T01:48:59.060Z,10.76
2022-11-15T01:51:26.699Z,10.78
2022-11-15T01:53:56.323Z,10.89
2022-11-15T01:56:25.483Z,10.95
2022-11-15T01:58:53.595Z,10.91
2022-11-15T02:01:20.505Z,11.00
2022-11-15T02:03:53.458Z,11.04
2022-11-15T02:06:20.216Z,11.14
2022-11-15T02:08:46.605Z,11.29
2022-11-15T02:11:12.980Z,11.37
2022-11-15T02:13:39.454Z,11.44
2022-11-15T02:16:14.724Z,11.56
2022-11-15T02:18:47.654Z,11.66
2022-11-15T02:21:35.091Z,11.66
2022-11-15T02:24:16.029Z,11.65
2022-11-15T02:27:15.027Z,11.77
2022-11-15T02:30:01.554Z,11.79
2022-11-15T02:32:31.355Z,11.76
2022-11-15T02:35:14.778Z,11.77
2022-11-15T02:37:49.147Z,11.78
2022-11-15T02:40:28.610Z,11.78
2022-11-15T02:43:16.631Z,11.84
2022-11-15T02:45:48.819Z,11.99
2022-11-15T02:48:15.165Z,11.92
2022-11-15T02:50:41.592Z,11.87
2022-11-15T02:53:09.535Z,11.95
2022-11-15T02:55:42.408Z,12.07
2022-11-15T02:58:27.390Z,12.08
2022-11-15T03:01:01.701Z,12.00
2022-11-15T03:03:39.523Z,11.96
2022-11-15T03:06:22.265Z,11.86
2022-11-15T03:09:00.919Z,11.90
2022-11-15T03:11:28.390Z,11.89
2022-11-15T03:14:00.409Z,11.88
2022-11-15T03:16:50.077Z,11.88
2022-11-15T03:19:25.160Z,11.86
2022-11-15T03:21:52.142Z,11.71
2022-11-15T03:24:25.668Z,11.69
2022-11-15T03:26:54.493Z,11.66
2022-11-15T03:29:24.062Z,11.49
2022-11-15T03:31:55.774Z,11.45
2022-11-15T03:34:42.612Z,11.50
2022-11-15T03:37:09.515Z,11.47
2022-11-15T03:39:35.938Z,11.49
2022-11-15T03:42:12.535Z,11.49
2022-11-15T03:44:48.211Z,11.43
2022-11-15T03:47:29.315Z,11.39
2022-11-15T03:50:11.977Z,11.39
2022-11-15T03:52:38.340Z,11.45
2022-11-15T03:55:06.016Z,11.45
2022-11-15T03:57:32.473Z,11.44
2022-11-15T03:59:58.855Z,11.44
2022-11-15T04:02:25.300Z,11.42
2022-11-15T04:04:51.719Z,11.33
2022-11-15T04:07:18.209Z,11.62
2022-11-15T04:10:02.989Z,11.47
2022-11-15T04:12:41.558Z,11.52
2022-11-15T04:15:13.462Z,11.60
2022-11-15T04:17:48.263Z,11.54
2022-11-15T04:20:43.029Z,11.59
2022-11-15T04:23:38.913Z,11.64
2022-11-15T04:26:08.055Z,11.66
2022-11-15T04:28:34.603Z,11.66
2022-11-15T04:31:00.968Z,11.69
2022-11-15T04:33:27.342Z,11.75
2022-11-15T04:36:12.039Z,11.70
2022-11-15T04:38:38.408Z,11.78
2022-11-15T04:41:04.901Z,11.81
2022-11-15T04:43:31.758Z,11.91
2022-11-15T04:45:58.459Z,11.91
2022-11-15T04:48:24.908Z,11.98
2022-11-15T04:50:51.287Z,11.92
2022-11-15T04:53:17.661Z,11.98
2022-11-15T04:55:47.200Z,12.01
2022-11-15T04:58:13.762Z,11.95
2022-11-15T05:00:40.881Z,11.98
2022-11-15T05:03:26.092Z,11.97
2022-11-15T05:05:52.445Z,11.99
2022-11-15T05:08:18.827Z,12.01
2022-11-15T05:10:45.629Z,12.03
2022-11-15T05:13:12.062Z,12.11
2022-11-15T05:15:38.458Z,12.08
2022-11-15T05:18:04.895Z,12.14
2022-11-15T05:20:33.806Z,12.14
2022-11-15T05:23:00.357Z,12.16
2022-11-15T05:25:27.112Z,12.10
2022-11-15T05:27:53.951Z,12.18
2022-11-15T05:30:20.402Z,12.16
2022-11-15T05:32:46.803Z,12.31
2022-11-15T05:35:19.574Z,12.33
2022-11-15T05:37:47.365Z,12.22
2022-11-15T05:40:13.746Z,12.19
2022-11-15T05:42:40.216Z,12.13
2022-11-15T05:45:07.458Z,12.17
2022-11-15T05:47:35.479Z,12.15
2022-11-15T05:50:01.895Z,12.09
2022-11-15T05:52:32.055Z,12.16
2022-11-15T05:54:59.005Z,12.17
2022-11-15T05:57:25.420Z,12.13
2022-11-15T05:59:52.114Z,12.06
2022-11-15T06:02:18.535Z,12.07
2022-11-15T06:04:44.928Z,12.12
2022-11-15T06:07:11.342Z,12.15
2022-11-15T06:09:37.810Z,12.24
2022-11-15T06:12:04.443Z,12.21
2022-11-15T06:14:30.958Z,12.26
2022-11-15T06:16:57.419Z,12.29
2022-11-15T06:19:23.774Z,12.24
2022-11-15T06:21:50.133Z,12.14
2022-11-15T06:24:16.507Z,12.25
2022-11-15T06:26:42.861Z,12.14
2022-11-15T06:29:09.272Z,12.23
2022-11-15T06:31:35.704Z,12.21
2022-11-15T06:34:02.066Z,12.22
2022-11-15T06:36:28.458Z,12.26
2022-11-15T06:38:54.811Z,12.24
2022-11-15T06:41:22.173Z,12.25
2022-11-15T06:43:48.530Z,12.32
2022-11-15T06:46:15.145Z,12.26
2022-11-15T06:48:41.511Z,12.33
2022-11-15T06:51:08.989Z,12.31
2022-11-15T06:53:35.733Z,12.31
2022-11-15T06:56:04.207Z,12.27
2022-11-15T06:58:30.811Z,12.32
2022-11-15T07:01:07.071Z,12.25
2022-11-15T07:03:35.886Z,12.28
2022-11-15T07:06:07.106Z,12.22
2022-11-15T07:08:34.916Z,12.18
2022-11-15T07:11:03.806Z,12.16
2022-11-15T07:13:34.325Z,12.30
2022-11-15T07:16:09.171Z,12.29
2022-11-15T07:18:36.794Z,12.18
2022-11-15T07:21:04.752Z,12.31
2022-11-15T07:23:31.566Z,12.39
2022-11-15T07:26:01.350Z,12.49
2022-11-15T07:28:28.177Z,12.51
2022-11-15T07:30:55.083Z,12.58
2022-11-15T07:33:21.578Z,12.57
2022-11-15T07:35:50.996Z,12.58
2022-11-15T07:38:21.415Z,12.53
2022-11-15T07:40:48.327Z,12.56
2022-11-15T07:43:14.718Z,12.74
2022-11-15T07:45:45.340Z,12.75
2022-11-15T07:48:11.899Z,12.78
2022-11-15T07:50:41.671Z,12.70
2022-11-15T07:53:09.531Z,12.64
2022-11-15T07:55:36.100Z,12.65
2022-11-15T07:58:07.377Z,12.56
2022-11-15T08:00:34.213Z,12.51
2022-11-15T08:03:14.607Z,12.51
2022-11-15T08:05:42.406Z,12.50
2022-11-15T08:08:10.343Z,12.48
2022-11-15T08:10:40.579Z,12.49
2022-11-15T08:13:10.282Z,12.40
2022-11-15T08:15:37.422Z,12.44
2022-11-15T08:18:06.275Z,12.52
2022-11-15T08:20:33.237Z,12.56
2022-11-15T08:23:01.285Z,12.50
2022-11-15T08:25:28.737Z,12.65
2022-11-15T08:27:56.738Z,12.67
2022-11-15T08:30:23.947Z,12.62
2022-11-15T08:32:51.168Z,12.58
2022-11-15T08:35:18.004Z,12.65
2022-11-15T08:37:44.402Z,12.62
2022-11-15T08:40:11.231Z,12.61
2022-11-15T08:42:37.838Z,12.70
2022-11-15T08:45:04.815Z,12.72
2022-11-15T08:47:31.484Z,12.70
2022-11-15T08:49:57.845Z,12.72
2022-11-15T08:52:24.329Z,12.81
2022-11-15T08:54:50.682Z,12.73
2022-11-15T08:57:17.088Z,12.78
2022-11-15T08:59:43.518Z,12.98
2022-11-15T09:02:15.043Z,12.88
2022-11-15T09:04:44.915Z,12.82
2022-11-15T09:07:12.157Z,12.87
2022-11-15T09:09:38.936Z,13.01
2022-11-15T09:12:06.818Z,13.04
2022-11-15T09:14:33.241Z,12.94
2022-11-15T09:17:00.056Z,13.00
2022-11-15T09:19:26.794Z,13.02
2022-11-15T09:21:53.465Z,12.92
2022-11-15T09:24:19.946Z,12.92
2022-11-15T09:26:46.345Z,12.93
2022-11-15T09:29:12.773Z,12.91
2022-11-15T09:31:39.157Z,12.95
2022-11-15T09:34:05.961Z,13.00
2022-11-15T09:36:32.382Z,13.07
2022-11-15T09:38:59.284Z,13.10
2022-11-15T09:41:49.458Z,13.00
2022-11-15T09:44:28.017Z,12.99
2022-11-15T09:47:20.712Z,12.95
2022-11-15T09:49:50.797Z,13.06
2022-11-15T09:52:20.794Z,13.20
2022-11-15T09:54:54.414Z,13.32
2022-11-15T09:57:34.157Z,13.24
2022-11-15T10:00:12.249Z,13.14
2022-11-15T10:03:12.206Z,13.18
2022-11-15T10:05:41.711Z,13.08
2022-11-15T10:08:30.050Z,13.23
2022-11-15T10:14:19.435Z,13.50
2022-11-15T10:17:18.920Z,13.68
2022-11-15T10:20:02.415Z,13.67
2022-11-15T10:22:44.908Z,13.82
2022-11-15T10:25:23.600Z,13.96
2022-11-15T10:27:59.117Z,14.26
2022-11-15T10:30:35.225Z,14.16
2022-11-15T10:33:12.316Z,14.09
2022-11-15T10:35:38.992Z,14.38
2022-11-15T10:38:07.704Z,14.64
2022-11-15T10:40:34.946Z,14.45
2022-11-15T10:43:10.361Z,14.43
2022-11-15T10:45:37.448Z,14.25
2022-11-15T10:48:12.971Z,14.19
2022-11-15T10:50:46.566Z,14.31
2022-11-15T10:53:32.878Z,14.25
2022-11-15T10:56:04.057Z,13.97
2022-11-15T10:58:45.378Z,13.88
2022-11-15T11:01:14.894Z,13.89
2022-11-15T11:03:43.332Z,13.95
2022-11-15T11:06:17.906Z,13.94
2022-11-15T11:09:05.798Z,13.96
2022-11-15T11:11:49.812Z,14.08
2022-11-15T11:14:28.621Z,13.91
2022-11-15T11:16:56.310Z,13.90
2022-11-15T11:19:35.808Z,13.91
2022-11-15T11:22:15.015Z,13.92
2022-11-15T11:25:02.678Z,14.03
2022-11-15T11:27:49.285Z,14.12
2022-11-15T11:30:22.827Z,14.13
2022-11-15T11:33:04.573Z,14.11
2022-11-15T11:35:54.704Z,14.05
2022-11-15T11:38:43.647Z,14.09
2022-11-15T11:41:19.103Z,14.12
2022-11-15T11:43:55.773Z,14.20
2022-11-15T11:46:49.597Z,14.24
2022-11-15T11:49:54.520Z,14.21
2022-11-15T11:52:44.250Z,14.22
2022-11-15T11:55:28.706Z,14.37
2022-11-15T11:58:13.802Z,14.22
2022-11-15T12:00:44.668Z,14.27
2022-11-15T12:03:35.828Z,14.42
2022-11-15T12:06:06.107Z,14.54
2022-11-15T12:08:59.189Z,14.75
2022-11-15T12:11:50.724Z,14.73
2022-11-15T12:14:27.505Z,14.93
2022-11-15T12:16:53.921Z,14.93
2022-11-15T12:19:20.285Z,14.81
2022-11-15T12:21:57.559Z,14.58
2022-11-15T12:24:42.752Z,14.59
2022-11-15T12:27:26.476Z,14.67
2022-11-15T12:29:55.254Z,14.85
2022-11-15T12:32:34.580Z,14.76
2022-11-15T12:35:02.536Z,14.48
2022-11-15T12:37:44.091Z,14.54
2022-11-15T12:40:10.648Z,14.46
2022-11-15T12:42:42.817Z,14.49
2022-11-15T12:45:32.368Z,14.45
2022-11-15T12:48:24.579Z,14.55
2022-11-15T12:50:56.611Z,14.48
2022-11-15T12:53:26.097Z,14.55
2022-11-15T12:56:19.085Z,14.58
2022-11-15T12:58:56.199Z,14.58
2022-11-15T13:01:31.703Z,14.61
2022-11-15T13:04:20.086Z,14.60
2022-11-15T13:06:47.663Z,14.64
2022-11-15T13:09:37.230Z,14.45
2022-11-15T13:12:05.507Z,14.34
2022-11-15T13:14:37.968Z,14.36
2022-11-15T13:17:34.771Z,14.31
2022-11-15T13:20:12.588Z,14.16
2022-11-15T13:23:00.353Z,14.28
2022-11-15T13:25:53.934Z,14.22
2022-11-15T13:28:42.122Z,14.30
2022-11-15T13:31:25.651Z,14.38
2022-11-15T13:33:52.807Z,14.41
2022-11-15T13:36:25.842Z,14.36
2022-11-15T13:39:05.474Z,14.33
2022-11-15T13:41:36.573Z,14.42
2022-11-15T13:44:04.514Z,14.42
2022-11-15T13:46:33.533Z,14.51
2022-11-15T13:49:05.332Z,14.39
2022-11-15T13:51:34.601Z,14.41
2022-11-15T13:54:07.889Z,14.53
2022-11-15T13:56:35.002Z,14.49
2022-11-15T13:59:09.964Z,14.31
2022-11-15T14:01:36.476Z,14.32
2022-11-15T14:04:04.097Z,14.21
2022-11-15T14:06:31.511Z,14.34
2022-11-15T14:09:10.019Z,14.33
2022-11-15T14:11:36.514Z,14.31
2022-11-15T14:14:09.058Z,14.17
2022-11-15T14:16:37.802Z,14.19
2022-11-15T14:19:05.922Z,14.21
2022-11-15T14:21:32.508Z,14.21
2022-11-15T14:24:18.455Z,14.26
2022-11-15T14:26:45.460Z,14.25
2022-11-15T14:29:28.988Z,14.31
2022-11-15T14:32:13.312Z,14.16
2022-11-15T14:34:39.758Z,14.18
2022-11-15T14:37:06.110Z,14.09
2022-11-15T14:39:32.475Z,14.03
2022-11-15T14:41:58.840Z,14.03
2022-11-15T14:44:25.218Z,14.08
2022-11-15T14:46:51.589Z,14.09
2022-11-15T14:49:17.973Z,13.89
2022-11-15T14:51:44.323Z,14.16
2022-11-15T14:54:11.523Z,14.09
2022-11-15T14:56:37.870Z,13.99
2022-11-15T14:59:04.244Z,14.01
2022-11-15T15:01:30.696Z,13.96
2022-11-15T15:03:57.970Z,13.94
2022-11-15T15:06:24.354Z,13.91
2022-11-15T15:08:51.884Z,13.97
2022-11-15T15:11:29.314Z,13.97
2022-11-15T15:13:57.953Z,13.87
2022-11-15T15:16:24.964Z,13.96
2022-11-15T15:18:51.556Z,13.94
2022-11-15T15:21:23.823Z,13.90
2022-11-15T15:23:50.389Z,13.62
2022-11-15T15:26:16.824Z,13.50
2022-11-15T15:28:43.351Z,13.43
2022-11-15T15:31:10.971Z,13.44
2022-11-15T15:33:38.052Z,13.30
2022-11-15T15:36:04.539Z,13.20
2022-11-15T15:38:31.435Z,13.31
2022-11-15T15:40:58.176Z,13.21
2022-11-15T15:43:24.543Z,13.15
2022-11-15T15:45:50.938Z,13.21
2022-11-15T15:48:18.000Z,13.39
2022-11-15T15:50:44.555Z,13.28
2022-11-15T15:53:11.913Z,13.38
2022-11-15T15:55:38.399Z,13.34
2022-11-15T15:58:05.815Z,13.18
2022-11-15T16:00:33.930Z,13.11
2022-11-15T16:03:00.312Z,13.22
2022-11-15T16:05:26.693Z,13.18
2022-11-15T16:07:53.066Z,13.04
2022-11-15T16:10:30.925Z,13.24
2022-11-15T16:12:58.147Z,13.17
2022-11-15T16:15:26.629Z,13.11
2022-11-15T16:18:00.733Z,13.11
2022-11-15T16:20:33.052Z,13.04
2022-11-15T16:23:04.332Z,12.78
2022-11-15T16:25:39.628Z,12.77
2022-11-15T16:28:06.216Z,12.90
2022-11-15T16:30:32.600Z,12.84
2022-11-15T16:32:59.054Z,12.94
2022-11-15T16:35:25.559Z,12.82
2022-11-15T16:37:51.993Z,12.68
2022-11-15T16:40:24.935Z,12.64
2022-11-15T16:42:51.405Z,12.84
2022-11-15T16:45:17.838Z,12.77
2022-11-15T16:47:44.188Z,12.77
2022-11-15T16:50:25.815Z,12.73
2022-11-15T16:52:57.035Z,12.77
2022-11-15T16:55:28.340Z,12.80
2022-11-15T16:57:55.625Z,12.78
2022-11-15T17:00:22.154Z,12.64
2022-11-15T17:02:50.352Z,12.75
2022-11-15T17:05:20.194Z,12.66
2022-11-15T17:07:52.258Z,12.72
2022-11-15T17:10:18.687Z,12.59
2022-11-15T17:12:45.195Z,12.67
2022-11-15T17:15:12.961Z,12.63
2022-11-15T17:17:40.331Z,12.40
2022-11-15T17:20:09.953Z,12.34
2022-11-15T17:22:37.327Z,12.38
2022-11-15T17:25:04.569Z,12.40
2022-11-15T17:27:31.421Z,12.34
2022-11-15T17:29:57.887Z,12.43
2022-11-15T17:32:24.261Z,12.50
2022-11-15T17:34:50.791Z,12.47
2022-11-15T17:37:17.248Z,12.50
2022-11-15T17:39:43.653Z,12.50
2022-11-15T17:42:10.105Z,12.46
2022-11-15T17:44:36.465Z,12.65
2022-11-15T17:47:02.935Z,12.72
2022-11-15T17:49:29.296Z,12.62
2022-11-15T17:51:55.666Z,12.58
2022-11-15T17:54:22.074Z,12.30
2022-11-15T17:56:48.501Z,12.22
2022-11-15T17:59:20.151Z,12.35
2022-11-15T18:01:47.878Z,12.45
2022-11-15T18:04:15.243Z,12.35
2022-11-15T18:06:42.037Z,12.44
2022-11-15T18:09:08.770Z,12.54
2022-11-15T18:11:41.262Z,12.69
2022-11-15T18:14:12.622Z,12.77
2022-11-15T18:16:40.175Z,12.69
2022-11-15T18:19:13.190Z,12.86
2022-11-15T18:21:57.065Z,12.92
2022-11-15T18:24:24.888Z,12.92
2022-11-15T18:26:51.494Z,12.83
2022-11-15T18:29:18.275Z,12.73
2022-11-15T18:31:47.656Z,12.81
2022-11-15T18:34:14.350Z,12.89
2022-11-15T18:36:41.222Z,13.09
2022-11-15T18:39:07.647Z,12.85
2022-11-15T18:41:34.546Z,12.93
2022-11-15T18:44:02.011Z,12.76
2022-11-15T18:46:31.185Z,12.65
2022-11-15T18:48:59.331Z,12.65
2022-11-15T18:51:26.998Z,12.73
2022-11-15T18:53:54.829Z,12.90
2022-11-15T18:56:22.868Z,12.95
2022-11-15T18:58:51.343Z,12.99
2022-11-15T19:01:20.128Z,13.08
2022-11-15T19:03:49.446Z,13.08
2022-11-15T19:06:17.887Z,13.20
2022-11-15T19:08:46.093Z,13.29
2022-11-15T19:11:14.879Z,13.36
2022-11-15T19:13:41.482Z,13.45
2022-11-15T19:16:08.123Z,13.51
2022-11-15T19:18:34.501Z,13.32
2022-11-15T19:21:05.908Z,13.39
2022-11-15T19:23:36.633Z,13.46
2022-11-15T19:26:04.708Z,13.16
2022-11-15T19:28:31.751Z,13.31
2022-11-15T19:31:11.439Z,13.29
2022-11-15T19:33:38.187Z,13.32
2022-11-15T19:36:09.787Z,13.30
2022-11-15T19:38:36.188Z,13.41
2022-11-15T19:41:05.328Z,13.33
2022-11-15T19:43:32.589Z,13.23
2022-11-15T19:46:02.660Z,13.30
2022-11-15T19:48:33.191Z,13.23
2022-11-15T19:51:07.425Z,13.32
2022-11-15T19:53:35.383Z,13.23
2022-11-15T19:56:04.303Z,13.20
2022-11-15T19:58:31.259Z,13.24
2022-11-15T20:01:38.706Z,13.20
2022-11-15T20:04:05.693Z,13.20
2022-11-15T20:06:35.719Z,13.33
2022-11-15T20:09:02.508Z,13.23
2022-11-15T20:11:28.934Z,13.16
2022-11-15T20:13:59.306Z,13.15
2022-11-15T20:16:25.770Z,13.20
2022-11-15T20:18:53.103Z,13.20
2022-11-15T20:21:20.206Z,13.20
2022-11-15T20:23:47.738Z,13.03
2022-11-15T20:26:15.099Z,13.23
2022-11-15T20:28:41.540Z,13.07
2022-11-15T20:31:09.487Z,13.11
2022-11-15T20:33:35.974Z,13.18
2022-11-15T20:36:06.929Z,13.14
2022-11-15T20:38:34.653Z,13.06
2022-11-15T20:41:01.388Z,13.08
2022-11-15T20:43:27.768Z,13.04
2022-11-15T20:45:54.160Z,13.08
2022-11-15T20:48:20.633Z,12.93
2022-11-15T20:50:47.212Z,12.99
2022-11-15T20:53:15.841Z,13.02
2022-11-15T20:55:44.319Z,12.91
2022-11-15T20:58:11.014Z,12.97
2022-11-15T21:00:38.003Z,12.90
2022-11-15T21:03:08.176Z,13.00
2022-11-15T21:05:37.190Z,12.88
2022-11-15T21:08:03.606Z,12.93
2022-11-15T21:10:48.608Z,13.03
2022-11-15T21:13:14.996Z,13.01
2022-11-15T21:15:41.377Z,13.20
2022-11-15T21:18:08.060Z,13.14
2022-11-15T21:20:34.489Z,13.16
2022-11-15T21:23:00.903Z,13.21
2022-11-15T21:25:27.327Z,13.29
2022-11-15T21:27:53.691Z,13.35
2022-11-15T21:30:20.228Z,13.30
2022-11-15T21:32:46.561Z,13.30
2022-11-15T21:35:14.172Z,13.23
2022-11-15T21:37:40.807Z,13.28
2022-11-15T21:40:08.186Z,13.36
2022-11-15T21:42:34.574Z,13.31
2022-11-15T21:45:01.011Z,13.23
2022-11-15T21:47:27.382Z,13.32
2022-11-15T21:49:53.820Z,13.29
2022-11-15T21:52:20.196Z,13.27
2022-11-15T21:54:46.616Z,13.36
2022-11-15T21:57:12.974Z,13.26
2022-11-15T21:59:59.317Z,13.28
2022-11-15T22:02:25.813Z,13.11
2022-11-15T22:04:52.204Z,13.15
2022-11-15T22:07:18.662Z,13.13
2022-11-15T22:09:45.134Z,13.15
2022-11-15T22:12:11.527Z,13.33
2022-11-15T22:14:37.896Z,13.23
2022-11-15T22:17:04.384Z,13.11
2022-11-15T22:19:30.761Z,13.25
2022-11-15T22:21:57.136Z,13.19
2022-11-15T22:24:23.728Z,13.28
2022-11-15T22:26:50.826Z,13.15
2022-11-15T22:29:17.215Z,13.07
2022-11-15T22:31:43.611Z,13.12
2022-11-15T22:34:10.279Z,13.07
2022-11-15T22:36:58.345Z,13.06
2022-11-15T22:39:23.236Z,12.95
2022-11-15T22:41:49.600Z,12.92
2022-11-15T22:44:15.982Z,12.93
2022-11-15T22:46:42.354Z,12.89
2022-11-15T22:49:09.202Z,12.88
2022-11-15T22:51:35.658Z,12.84
2022-11-15T22:54:02.311Z,12.51
2022-11-15T22:56:28.693Z,12.55
2022-11-15T22:58:55.095Z,12.55
2022-11-15T23:01:22.064Z,12.42
2022-11-15T23:03:48.723Z,12.06
2022-11-15T23:06:15.143Z,11.99
2022-11-15T23:08:41.753Z,11.94
2022-11-15T23:11:29.018Z,11.83
2022-11-15T23:13:56.320Z,11.87
2022-11-15T23:16:23.454Z,11.73
2022-11-15T23:18:51.723Z,11.72
2022-11-15T23:21:47.733Z,11.72
2022-11-15T23:24:14.795Z,11.75
2022-11-15T23:26:41.974Z,11.69
2022-11-15T23:29:10.172Z,11.74
2022-11-15T23:32:01.595Z,11.63
2022-11-15T23:34:33.076Z,11.66
2022-11-15T23:36:59.713Z,11.61
2022-11-15T23:39:26.380Z,11.59
2022-11-15T23:41:52.763Z,11.50
2022-11-15T23:44:19.145Z,11.59
2022-11-15T23:46:45.733Z,11.51
2022-11-15T23:49:12.102Z,11.52
2022-11-15T23:51:38.553Z,11.45
2022-11-15T23:54:05.097Z,11.43
2022-11-15T23:56:31.602Z,11.48
2022-11-15T23:58:58.303Z,11.46
